KDKX

Knoxville Downtown Island Airport

Knoxville, Tennessee, USA
METAR KDKX 161435Z AUTO 00000KT 4SM BR CLR M01/M02 A3030 RMK A01
Observed Flight Rules
Dec-16 @ 14:35 UTC (24 minutes ago) Marginal Visual Flight Rules
Wind Visibility Clouds Conditions
Calm 4 miles
  • Clear skies
  • Mist
Temperatures Readings
Current -1°C / 30°F
Dewpoint -2°C / 28°F
Humidity 93%
Altimeter 30.3" Hg
Pressure 1026 hPa
Elevation 254
METAR KDKX 161435Z AUTO 00000KT 4SM BR CLR M01/M02 A3030 RMK A01
Observed Flight Rules
Dec-16 @ 14:35 UTC
(24 minutes ago)
MVFR
Wind Visibility
Calm 4 miles
Clouds
  • Clear skies
Conditions
  • Mist
Temperature Dewpoint
-1°C / 30°F -2°C / 28°F
Humidity Altimeter Pressure
93% 30.3" Hg 1026 hPa